sensor_id;sensor_type;location;lat;lon;timestamp;temperature;humidity
7117;DHT22;3600;48.568;7.870;2023-04-07T00:00:24;8.90;99.90
7117;DHT22;3600;48.568;7.870;2023-04-07T00:02:52;9.00;99.90
7117;DHT22;3600;48.568;7.870;2023-04-07T00:05:19;8.90;99.90
7117;DHT22;3600;48.568;7.870;2023-04-07T00:07:46;8.90;99.90
7117;DHT22;3600;48.568;7.870;2023-04-07T00:10:21;8.80;99.90
7117;DHT22;3600;48.568;7.870;2023-04-07T00:12:48;8.70;99.90
7117;DHT22;3600;48.568;7.870;2023-04-07T00:15:15;8.80;99.90
7117;DHT22;3600;48.568;7.870;2023-04-07T00:17:42;8.80;99.90
7117;DHT22;3600;48.568;7.870;2023-04-07T00:20:09;8.70;99.90
7117;DHT22;3600;48.568;7.870;2023-04-07T00:22:36;8.70;99.90
7117;DHT22;3600;48.568;7.870;2023-04-07T00:25:03;8.80;99.90
7117;DHT22;3600;48.568;7.870;2023-04-07T00:27:30;8.80;99.90
7117;DHT22;3600;48.568;7.870;2023-04-07T00:29:57;8.70;99.90
7117;DHT22;3600;48.568;7.870;2023-04-07T00:32:24;8.60;99.90
7117;DHT22;3600;48.568;7.870;2023-04-07T00:34:50;8.60;99.90
7117;DHT22;3600;48.568;7.870;2023-04-07T00:37:17;8.50;99.90
7117;DHT22;3600;48.568;7.870;2023-04-07T00:39:45;8.40;99.90
7117;DHT22;3600;48.568;7.870;2023-04-07T00:42:12;8.40;99.90
7117;DHT22;3600;48.568;7.870;2023-04-07T00:44:39;8.30;99.90
7117;DHT22;3600;48.568;7.870;2023-04-07T00:47:06;8.20;99.90
7117;DHT22;3600;48.568;7.870;2023-04-07T00:49:33;8.30;99.90
7117;DHT22;3600;48.568;7.870;2023-04-07T00:52:00;8.30;99.90
7117;DHT22;3600;48.568;7.870;2023-04-07T00:54:29;8.40;99.90
7117;DHT22;3600;48.568;7.870;2023-04-07T00:56:56;8.50;99.90
7117;DHT22;3600;48.568;7.870;2023-04-07T00:59:23;8.60;99.90
7117;DHT22;3600;48.568;7.870;2023-04-07T01:02:10;8.70;99.90
7117;DHT22;3600;48.568;7.870;2023-04-07T01:04:55;8.60;99.90
7117;DHT22;3600;48.568;7.870;2023-04-07T01:07:33;8.50;99.90
7117;DHT22;3600;48.568;7.870;2023-04-07T01:10:11;8.60;99.90
7117;DHT22;3600;48.568;7.870;2023-04-07T01:13:20;8.40;99.90
7117;DHT22;3600;48.568;7.870;2023-04-07T01:15:51;8.30;99.90
7117;DHT22;3600;48.568;7.870;2023-04-07T01:18:27;8.40;99.90
7117;DHT22;3600;48.568;7.870;2023-04-07T01:20:59;8.50;99.90
7117;DHT22;3600;48.568;7.870;2023-04-07T01:26:23;8.60;99.90
7117;DHT22;3600;48.568;7.870;2023-04-07T01:31:39;8.50;99.90
7117;DHT22;3600;48.568;7.870;2023-04-07T01:34:09;8.50;99.90
7117;DHT22;3600;48.568;7.870;2023-04-07T01:36:37;8.50;99.90
7117;DHT22;3600;48.568;7.870;2023-04-07T01:39:05;8.50;99.90
7117;DHT22;3600;48.568;7.870;2023-04-07T01:41:33;8.50;99.90
7117;DHT22;3600;48.568;7.870;2023-04-07T01:44:00;8.50;99.90
7117;DHT22;3600;48.568;7.870;2023-04-07T01:46:28;8.50;99.90
7117;DHT22;3600;48.568;7.870;2023-04-07T01:48:56;8.50;99.90
7117;DHT22;3600;48.568;7.870;2023-04-07T01:51:24;8.50;99.90
7117;DHT22;3600;48.568;7.870;2023-04-07T01:53:52;8.50;99.90
7117;DHT22;3600;48.568;7.870;2023-04-07T01:56:20;8.50;99.90
7117;DHT22;3600;48.568;7.870;2023-04-07T01:58:46;8.50;99.90
7117;DHT22;3600;48.568;7.870;2023-04-07T02:01:13;8.50;99.90
7117;DHT22;3600;48.568;7.870;2023-04-07T02:03:51;8.60;99.90
7117;DHT22;3600;48.568;7.870;2023-04-07T02:06:22;8.60;99.90
7117;DHT22;3600;48.568;7.870;2023-04-07T02:08:56;8.50;99.90
7117;DHT22;3600;48.568;7.870;2023-04-07T02:11:25;8.60;99.90
7117;DHT22;3600;48.568;7.870;2023-04-07T02:13:54;8.60;99.90
7117;DHT22;3600;48.568;7.870;2023-04-07T02:16:22;8.60;99.90
7117;DHT22;3600;48.568;7.870;2023-04-07T02:18:50;8.60;99.90
7117;DHT22;3600;48.568;7.870;2023-04-07T02:21:19;8.60;99.90
7117;DHT22;3600;48.568;7.870;2023-04-07T02:23:46;8.60;99.90
7117;DHT22;3600;48.568;7.870;2023-04-07T02:26:13;8.50;99.90
7117;DHT22;3600;48.568;7.870;2023-04-07T02:28:40;8.50;99.90
7117;DHT22;3600;48.568;7.870;2023-04-07T02:31:07;8.30;99.90
7117;DHT22;3600;48.568;7.870;2023-04-07T02:33:34;8.10;99.90
7117;DHT22;3600;48.568;7.870;2023-04-07T02:36:00;8.00;99.90
7117;DHT22;3600;48.568;7.870;2023-04-07T02:38:27;8.10;99.90
7117;DHT22;3600;48.568;7.870;2023-04-07T02:40:54;8.10;99.90
7117;DHT22;3600;48.568;7.870;2023-04-07T02:43:22;8.10;99.90
7117;DHT22;3600;48.568;7.870;2023-04-07T02:45:49;8.10;99.90
7117;DHT22;3600;48.568;7.870;2023-04-07T02:48:16;8.10;99.90
7117;DHT22;3600;48.568;7.870;2023-04-07T02:50:42;8.10;99.90
7117;DHT22;3600;48.568;7.870;2023-04-07T02:53:09;8.10;99.90
7117;DHT22;3600;48.568;7.870;2023-04-07T02:55:36;8.00;99.90
7117;DHT22;3600;48.568;7.870;2023-04-07T02:58:03;7.90;99.90
7117;DHT22;3600;48.568;7.870;2023-04-07T03:00:30;8.00;99.90
7117;DHT22;3600;48.568;7.870;2023-04-07T03:02:57;8.10;99.90
7117;DHT22;3600;48.568;7.870;2023-04-07T03:05:24;8.00;99.90
7117;DHT22;3600;48.568;7.870;2023-04-07T03:07:51;8.00;99.90
7117;DHT22;3600;48.568;7.870;2023-04-07T03:10:17;8.10;99.90
7117;DHT22;3600;48.568;7.870;2023-04-07T03:12:44;8.10;99.90
7117;DHT22;3600;48.568;7.870;2023-04-07T03:15:11;8.20;99.90
7117;DHT22;3600;48.568;7.870;2023-04-07T03:17:38;8.10;99.90
7117;DHT22;3600;48.568;7.870;2023-04-07T03:20:05;8.10;99.90
7117;DHT22;3600;48.568;7.870;2023-04-07T03:22:33;8.10;99.90
7117;DHT22;3600;48.568;7.870;2023-04-07T03:24:59;8.10;99.90
7117;DHT22;3600;48.568;7.870;2023-04-07T03:27:26;8.10;99.90
7117;DHT22;3600;48.568;7.870;2023-04-07T03:29:53;8.10;99.90
7117;DHT22;3600;48.568;7.870;2023-04-07T03:32:19;8.10;99.90
7117;DHT22;3600;48.568;7.870;2023-04-07T03:34:46;8.20;99.90
7117;DHT22;3600;48.568;7.870;2023-04-07T03:37:13;8.10;99.90
7117;DHT22;3600;48.568;7.870;2023-04-07T03:39:39;8.00;99.90
7117;DHT22;3600;48.568;7.870;2023-04-07T03:42:06;8.00;99.90
7117;DHT22;3600;48.568;7.870;2023-04-07T03:44:33;8.10;99.90
7117;DHT22;3600;48.568;7.870;2023-04-07T03:47:00;8.00;99.90
7117;DHT22;3600;48.568;7.870;2023-04-07T03:49:27;7.80;99.90
7117;DHT22;3600;48.568;7.870;2023-04-07T03:51:53;7.90;99.90
7117;DHT22;3600;48.568;7.870;2023-04-07T03:54:20;7.80;99.90
7117;DHT22;3600;48.568;7.870;2023-04-07T03:56:47;7.80;99.90
7117;DHT22;3600;48.568;7.870;2023-04-07T03:59:14;7.80;99.90
7117;DHT22;3600;48.568;7.870;2023-04-07T04:01:41;7.90;99.90
7117;DHT22;3600;48.568;7.870;2023-04-07T04:04:09;8.00;99.90
7117;DHT22;3600;48.568;7.870;2023-04-07T04:06:36;8.00;99.90
7117;DHT22;3600;48.568;7.870;2023-04-07T04:09:03;7.90;99.90
7117;DHT22;3600;48.568;7.870;2023-04-07T04:11:30;7.90;99.90
7117;DHT22;3600;48.568;7.870;2023-04-07T04:13:57;8.00;99.90
7117;DHT22;3600;48.568;7.870;2023-04-07T04:16:23;8.10;99.90
7117;DHT22;3600;48.568;7.870;2023-04-07T04:18:50;8.10;99.90
7117;DHT22;3600;48.568;7.870;2023-04-07T04:21:17;8.10;99.90
7117;DHT22;3600;48.568;7.870;2023-04-07T04:23:44;8.10;99.90
7117;DHT22;3600;48.568;7.870;2023-04-07T04:26:11;8.00;99.90
7117;DHT22;3600;48.568;7.870;2023-04-07T04:28:38;8.10;99.90
7117;DHT22;3600;48.568;7.870;2023-04-07T04:31:05;8.00;99.90
7117;DHT22;3600;48.568;7.870;2023-04-07T04:33:32;7.90;99.90
7117;DHT22;3600;48.568;7.870;2023-04-07T04:35:59;7.80;99.90
7117;DHT22;3600;48.568;7.870;2023-04-07T04:38:25;7.90;99.90
7117;DHT22;3600;48.568;7.870;2023-04-07T04:40:52;7.90;99.90
7117;DHT22;3600;48.568;7.870;2023-04-07T04:43:19;8.10;99.90
7117;DHT22;3600;48.568;7.870;2023-04-07T04:45:46;8.10;99.90
7117;DHT22;3600;48.568;7.870;2023-04-07T04:48:13;8.20;99.90
7117;DHT22;3600;48.568;7.870;2023-04-07T04:50:41;8.20;99.90
7117;DHT22;3600;48.568;7.870;2023-04-07T04:53:08;8.20;99.90
7117;DHT22;3600;48.568;7.870;2023-04-07T04:55:36;8.20;99.90
7117;DHT22;3600;48.568;7.870;2023-04-07T04:58:02;8.20;99.90
7117;DHT22;3600;48.568;7.870;2023-04-07T05:00:29;8.00;99.90
7117;DHT22;3600;48.568;7.870;2023-04-07T05:02:56;8.00;99.90
7117;DHT22;3600;48.568;7.870;2023-04-07T05:05:23;8.10;99.90
7117;DHT22;3600;48.568;7.870;2023-04-07T05:07:50;8.10;99.90
7117;DHT22;3600;48.568;7.870;2023-04-07T05:10:17;8.10;99.90
7117;DHT22;3600;48.568;7.870;2023-04-07T05:12:43;8.20;99.90
7117;DHT22;3600;48.568;7.870;2023-04-07T05:15:11;8.20;99.90
7117;DHT22;3600;48.568;7.870;2023-04-07T05:17:37;8.20;99.90
7117;DHT22;3600;48.568;7.870;2023-04-07T05:20:05;8.20;99.90
7117;DHT22;3600;48.568;7.870;2023-04-07T05:22:31;8.20;99.90
7117;DHT22;3600;48.568;7.870;2023-04-07T05:24:58;8.20;99.90
7117;DHT22;3600;48.568;7.870;2023-04-07T05:27:25;8.20;99.90
7117;DHT22;3600;48.568;7.870;2023-04-07T05:29:52;8.20;99.90
7117;DHT22;3600;48.568;7.870;2023-04-07T05:32:20;8.10;99.90
7117;DHT22;3600;48.568;7.870;2023-04-07T05:34:47;8.00;99.90
7117;DHT22;3600;48.568;7.870;2023-04-07T05:37:14;8.00;99.90
7117;DHT22;3600;48.568;7.870;2023-04-07T05:39:41;8.00;99.90
7117;DHT22;3600;48.568;7.870;2023-04-07T05:42:07;8.00;99.90
7117;DHT22;3600;48.568;7.870;2023-04-07T05:44:34;8.00;99.90
7117;DHT22;3600;48.568;7.870;2023-04-07T05:47:01;8.10;99.90
7117;DHT22;3600;48.568;7.870;2023-04-07T05:49:31;8.10;99.90
7117;DHT22;3600;48.568;7.870;2023-04-07T05:51:58;8.00;99.90
7117;DHT22;3600;48.568;7.870;2023-04-07T05:54:24;7.90;99.90
7117;DHT22;3600;48.568;7.870;2023-04-07T05:56:51;7.90;99.90
7117;DHT22;3600;48.568;7.870;2023-04-07T05:59:18;7.90;99.90
7117;DHT22;3600;48.568;7.870;2023-04-07T06:01:45;7.90;99.90
7117;DHT22;3600;48.568;7.870;2023-04-07T06:04:12;7.90;99.90
7117;DHT22;3600;48.568;7.870;2023-04-07T06:06:39;7.80;99.90
7117;DHT22;3600;48.568;7.870;2023-04-07T06:09:05;7.80;99.90
7117;DHT22;3600;48.568;7.870;2023-04-07T06:11:33;7.90;99.90
7117;DHT22;3600;48.568;7.870;2023-04-07T06:14:00;7.90;99.90
7117;DHT22;3600;48.568;7.870;2023-04-07T06:16:27;7.90;99.90
7117;DHT22;3600;48.568;7.870;2023-04-07T06:18:54;8.00;99.90
7117;DHT22;3600;48.568;7.870;2023-04-07T06:21:20;8.00;99.90
7117;DHT22;3600;48.568;7.870;2023-04-07T06:23:47;7.90;99.90
7117;DHT22;3600;48.568;7.870;2023-04-07T06:26:14;8.00;99.90
7117;DHT22;3600;48.568;7.870;2023-04-07T06:28:41;8.10;99.90
7117;DHT22;3600;48.568;7.870;2023-04-07T06:31:08;8.10;99.90
7117;DHT22;3600;48.568;7.870;2023-04-07T06:33:35;8.10;99.90
7117;DHT22;3600;48.568;7.870;2023-04-07T06:36:02;8.10;99.90
7117;DHT22;3600;48.568;7.870;2023-04-07T06:38:29;8.00;99.90
7117;DHT22;3600;48.568;7.870;2023-04-07T06:40:55;8.00;99.90
7117;DHT22;3600;48.568;7.870;2023-04-07T06:43:22;8.00;99.90
7117;DHT22;3600;48.568;7.870;2023-04-07T06:45:49;8.00;99.90
7117;DHT22;3600;48.568;7.870;2023-04-07T06:48:16;8.20;99.90
7117;DHT22;3600;48.568;7.870;2023-04-07T06:50:49;8.30;99.90
7117;DHT22;3600;48.568;7.870;2023-04-07T06:53:17;8.20;99.90
7117;DHT22;3600;48.568;7.870;2023-04-07T06:55:44;8.20;99.90
7117;DHT22;3600;48.568;7.870;2023-04-07T06:58:11;8.30;99.90
7117;DHT22;3600;48.568;7.870;2023-04-07T07:00:38;8.30;99.90
7117;DHT22;3600;48.568;7.870;2023-04-07T07:03:04;8.30;99.90
7117;DHT22;3600;48.568;7.870;2023-04-07T07:05:32;8.20;99.90
7117;DHT22;3600;48.568;7.870;2023-04-07T07:07:58;8.20;99.90
7117;DHT22;3600;48.568;7.870;2023-04-07T07:10:25;8.20;99.90
7117;DHT22;3600;48.568;7.870;2023-04-07T07:12:52;8.20;99.90
7117;DHT22;3600;48.568;7.870;2023-04-07T07:15:19;8.20;99.90
7117;DHT22;3600;48.568;7.870;2023-04-07T07:17:46;8.20;99.90
7117;DHT22;3600;48.568;7.870;2023-04-07T07:20:13;8.30;99.90
7117;DHT22;3600;48.568;7.870;2023-04-07T07:22:39;8.40;99.90
7117;DHT22;3600;48.568;7.870;2023-04-07T07:25:07;8.60;99.90
7117;DHT22;3600;48.568;7.870;2023-04-07T07:27:33;8.70;99.90
7117;DHT22;3600;48.568;7.870;2023-04-07T07:30:00;8.80;99.90
7117;DHT22;3600;48.568;7.870;2023-04-07T07:32:27;8.80;99.90
7117;DHT22;3600;48.568;7.870;2023-04-07T07:34:54;8.90;99.90
7117;DHT22;3600;48.568;7.870;2023-04-07T07:37:20;8.90;99.90
7117;DHT22;3600;48.568;7.870;2023-04-07T07:39:47;9.00;99.90
7117;DHT22;3600;48.568;7.870;2023-04-07T07:42:15;9.20;99.90
7117;DHT22;3600;48.568;7.870;2023-04-07T07:44:41;9.30;99.90
7117;DHT22;3600;48.568;7.870;2023-04-07T07:47:08;9.30;99.90
7117;DHT22;3600;48.568;7.870;2023-04-07T07:49:35;9.30;99.90
7117;DHT22;3600;48.568;7.870;2023-04-07T07:52:02;9.40;99.90
7117;DHT22;3600;48.568;7.870;2023-04-07T07:54:30;9.50;99.90
7117;DHT22;3600;48.568;7.870;2023-04-07T07:56:56;9.60;99.90
7117;DHT22;3600;48.568;7.870;2023-04-07T07:59:23;9.70;99.90
7117;DHT22;3600;48.568;7.870;2023-04-07T08:01:50;9.60;99.90
7117;DHT22;3600;48.568;7.870;2023-04-07T08:04:16;9.70;99.90
7117;DHT22;3600;48.568;7.870;2023-04-07T08:06:43;9.70;99.90
7117;DHT22;3600;48.568;7.870;2023-04-07T08:09:10;9.70;99.90
7117;DHT22;3600;48.568;7.870;2023-04-07T08:11:37;9.80;99.90
7117;DHT22;3600;48.568;7.870;2023-04-07T08:14:04;10.00;99.90
7117;DHT22;3600;48.568;7.870;2023-04-07T08:16:33;9.90;99.90
7117;DHT22;3600;48.568;7.870;2023-04-07T08:19:00;9.80;99.90
7117;DHT22;3600;48.568;7.870;2023-04-07T08:21:27;9.80;99.90
7117;DHT22;3600;48.568;7.870;2023-04-07T08:23:54;10.00;99.90
7117;DHT22;3600;48.568;7.870;2023-04-07T08:26:21;10.20;99.90
7117;DHT22;3600;48.568;7.870;2023-04-07T08:28:49;10.00;99.90
7117;DHT22;3600;48.568;7.870;2023-04-07T08:31:18;10.20;99.90
7117;DHT22;3600;48.568;7.870;2023-04-07T08:33:45;10.20;99.90
7117;DHT22;3600;48.568;7.870;2023-04-07T08:36:13;10.20;99.90
7117;DHT22;3600;48.568;7.870;2023-04-07T08:38:39;10.20;99.90
7117;DHT22;3600;48.568;7.870;2023-04-07T08:41:10;10.40;99.90
7117;DHT22;3600;48.568;7.870;2023-04-07T08:43:38;10.60;99.90
7117;DHT22;3600;48.568;7.870;2023-04-07T08:46:09;10.60;99.90
7117;DHT22;3600;48.568;7.870;2023-04-07T08:48:37;10.40;99.90
7117;DHT22;3600;48.568;7.870;2023-04-07T08:51:06;10.20;99.90
7117;DHT22;3600;48.568;7.870;2023-04-07T08:53:42;10.10;99.90
7117;DHT22;3600;48.568;7.870;2023-04-07T08:56:12;10.20;99.90
7117;DHT22;3600;48.568;7.870;2023-04-07T08:58:40;10.30;99.90
7117;DHT22;3600;48.568;7.870;2023-04-07T09:01:08;10.20;99.90
7117;DHT22;3600;48.568;7.870;2023-04-07T09:03:35;10.40;99.90
7117;DHT22;3600;48.568;7.870;2023-04-07T09:06:03;10.40;99.90
7117;DHT22;3600;48.568;7.870;2023-04-07T09:08:29;10.40;99.90
7117;DHT22;3600;48.568;7.870;2023-04-07T09:10:56;10.30;99.90
7117;DHT22;3600;48.568;7.870;2023-04-07T09:13:23;10.40;99.90
7117;DHT22;3600;48.568;7.870;2023-04-07T09:15:50;10.60;99.90
7117;DHT22;3600;48.568;7.870;2023-04-07T09:18:18;10.70;99.90
7117;DHT22;3600;48.568;7.870;2023-04-07T09:20:57;10.70;99.90
7117;DHT22;3600;48.568;7.870;2023-04-07T09:23:35;10.70;99.90
7117;DHT22;3600;48.568;7.870;2023-04-07T09:26:24;10.80;99.90
7117;DHT22;3600;48.568;7.870;2023-04-07T09:28:57;10.70;99.90
7117;DHT22;3600;48.568;7.870;2023-04-07T09:31:44;10.70;99.90
7117;DHT22;3600;48.568;7.870;2023-04-07T09:34:26;10.80;99.90
7117;DHT22;3600;48.568;7.870;2023-04-07T09:36:54;10.70;99.90
7117;DHT22;3600;48.568;7.870;2023-04-07T09:39:21;10.90;99.90
7117;DHT22;3600;48.568;7.870;2023-04-07T09:41:48;11.00;99.90
7117;DHT22;3600;48.568;7.870;2023-04-07T09:44:14;10.80;99.90
7117;DHT22;3600;48.568;7.870;2023-04-07T09:46:49;10.80;99.90
7117;DHT22;3600;48.568;7.870;2023-04-07T09:49:16;10.80;99.90
7117;DHT22;3600;48.568;7.870;2023-04-07T09:51:52;10.80;99.90
7117;DHT22;3600;48.568;7.870;2023-04-07T09:54:39;10.70;99.90
7117;DHT22;3600;48.568;7.870;2023-04-07T09:57:10;10.90;99.90
7117;DHT22;3600;48.568;7.870;2023-04-07T09:59:39;11.00;99.90
7117;DHT22;3600;48.568;7.870;2023-04-07T10:02:08;11.00;99.90
7117;DHT22;3600;48.568;7.870;2023-04-07T10:04:35;11.00;99.90
7117;DHT22;3600;48.568;7.870;2023-04-07T10:07:04;10.80;99.90
7117;DHT22;3600;48.568;7.870;2023-04-07T10:09:31;10.80;99.90
7117;DHT22;3600;48.568;7.870;2023-04-07T10:11:58;11.00;99.90
7117;DHT22;3600;48.568;7.870;2023-04-07T10:14:30;11.10;99.90
7117;DHT22;3600;48.568;7.870;2023-04-07T10:16:59;11.20;99.90
7117;DHT22;3600;48.568;7.870;2023-04-07T10:19:33;11.00;99.90
7117;DHT22;3600;48.568;7.870;2023-04-07T10:22:01;11.00;99.90
7117;DHT22;3600;48.568;7.870;2023-04-07T10:27:16;11.10;99.90
7117;DHT22;3600;48.568;7.870;2023-04-07T10:29:47;10.90;99.90
7117;DHT22;3600;48.568;7.870;2023-04-07T10:32:15;11.10;99.90
7117;DHT22;3600;48.568;7.870;2023-04-07T10:37:21;11.20;99.90
7117;DHT22;3600;48.568;7.870;2023-04-07T10:39:50;11.20;99.90
7117;DHT22;3600;48.568;7.870;2023-04-07T10:45:09;11.20;99.90
7117;DHT22;3600;48.568;7.870;2023-04-07T10:48:09;11.30;99.90
7117;DHT22;3600;48.568;7.870;2023-04-07T10:50:37;11.30;99.90
7117;DHT22;3600;48.568;7.870;2023-04-07T10:53:08;11.40;99.90
7117;DHT22;3600;48.568;7.870;2023-04-07T10:55:43;11.40;99.90
7117;DHT22;3600;48.568;7.870;2023-04-07T10:58:27;11.20;99.90
7117;DHT22;3600;48.568;7.870;2023-04-07T11:03:35;11.00;99.90
7117;DHT22;3600;48.568;7.870;2023-04-07T11:06:10;11.20;99.90
7117;DHT22;3600;48.568;7.870;2023-04-07T11:08:42;11.20;99.90
7117;DHT22;3600;48.568;7.870;2023-04-07T11:11:13;11.30;99.90
7117;DHT22;3600;48.568;7.870;2023-04-07T11:16:12;11.50;99.90
7117;DHT22;3600;48.568;7.870;2023-04-07T11:18:40;11.50;99.90
7117;DHT22;3600;48.568;7.870;2023-04-07T11:21:07;11.40;99.90
7117;DHT22;3600;48.568;7.870;2023-04-07T11:23:39;11.50;99.90
7117;DHT22;3600;48.568;7.870;2023-04-07T11:26:08;11.50;99.90
7117;DHT22;3600;48.568;7.870;2023-04-07T11:28:47;11.40;99.90
7117;DHT22;3600;48.568;7.870;2023-04-07T11:34:02;11.40;99.90
7117;DHT22;3600;48.568;7.870;2023-04-07T11:36:32;11.40;99.90
7117;DHT22;3600;48.568;7.870;2023-04-07T11:39:00;11.40;99.90
7117;DHT22;3600;48.568;7.870;2023-04-07T11:41:30;11.40;99.90
7117;DHT22;3600;48.568;7.870;2023-04-07T11:44:09;11.40;99.90
7117;DHT22;3600;48.568;7.870;2023-04-07T11:46:54;11.50;99.90
7117;DHT22;3600;48.568;7.870;2023-04-07T11:49:22;11.50;99.90
7117;DHT22;3600;48.568;7.870;2023-04-07T11:51:58;11.50;99.90
7117;DHT22;3600;48.568;7.870;2023-04-07T11:54:25;11.50;99.90
7117;DHT22;3600;48.568;7.870;2023-04-07T11:56:52;11.50;99.90
7117;DHT22;3600;48.568;7.870;2023-04-07T11:59:24;11.50;99.90
7117;DHT22;3600;48.568;7.870;2023-04-07T12:01:52;11.50;99.90
7117;DHT22;3600;48.568;7.870;2023-04-07T12:04:22;11.60;99.90
7117;DHT22;3600;48.568;7.870;2023-04-07T12:06:49;11.70;99.90
7117;DHT22;3600;48.568;7.870;2023-04-07T12:09:31;11.80;99.90
7117;DHT22;3600;48.568;7.870;2023-04-07T12:12:00;11.90;99.90
7117;DHT22;3600;48.568;7.870;2023-04-07T12:14:28;11.90;99.90
7117;DHT22;3600;48.568;7.870;2023-04-07T12:16:55;11.90;99.90
7117;DHT22;3600;48.568;7.870;2023-04-07T12:19:25;11.90;99.90
7117;DHT22;3600;48.568;7.870;2023-04-07T12:21:53;12.00;99.90
7117;DHT22;3600;48.568;7.870;2023-04-07T12:24:20;12.10;99.90
7117;DHT22;3600;48.568;7.870;2023-04-07T12:26:47;12.10;99.90
7117;DHT22;3600;48.568;7.870;2023-04-07T12:29:16;12.20;99.90
7117;DHT22;3600;48.568;7.870;2023-04-07T12:31:43;12.20;99.90
7117;DHT22;3600;48.568;7.870;2023-04-07T12:34:09;12.30;99.90
7117;DHT22;3600;48.568;7.870;2023-04-07T12:36:36;12.30;99.90
7117;DHT22;3600;48.568;7.870;2023-04-07T12:39:03;12.40;99.90
7117;DHT22;3600;48.568;7.870;2023-04-07T12:41:30;12.40;99.90
7117;DHT22;3600;48.568;7.870;2023-04-07T12:43:57;12.40;99.90
7117;DHT22;3600;48.568;7.870;2023-04-07T12:46:24;12.60;99.90
7117;DHT22;3600;48.568;7.870;2023-04-07T12:48:51;12.70;99.90
7117;DHT22;3600;48.568;7.870;2023-04-07T12:51:18;12.70;99.90
7117;DHT22;3600;48.568;7.870;2023-04-07T12:53:45;12.90;99.90
7117;DHT22;3600;48.568;7.870;2023-04-07T12:56:13;12.90;99.90
7117;DHT22;3600;48.568;7.870;2023-04-07T12:58:40;13.00;99.90
7117;DHT22;3600;48.568;7.870;2023-04-07T13:01:07;13.10;99.90
7117;DHT22;3600;48.568;7.870;2023-04-07T13:03:34;13.10;99.90
7117;DHT22;3600;48.568;7.870;2023-04-07T13:06:02;13.10;99.90
7117;DHT22;3600;48.568;7.870;2023-04-07T13:08:30;13.20;99.90
7117;DHT22;3600;48.568;7.870;2023-04-07T13:10:57;13.50;99.90
7117;DHT22;3600;48.568;7.870;2023-04-07T13:13:23;13.80;99.90
7117;DHT22;3600;48.568;7.870;2023-04-07T13:15:50;14.10;99.90
7117;DHT22;3600;48.568;7.870;2023-04-07T13:18:17;14.20;99.90
7117;DHT22;3600;48.568;7.870;2023-04-07T13:20:45;14.50;99.90
7117;DHT22;3600;48.568;7.870;2023-04-07T13:23:30;14.60;99.60
7117;DHT22;3600;48.568;7.870;2023-04-07T13:26:08;14.80;99.90
7117;DHT22;3600;48.568;7.870;2023-04-07T13:28:35;14.90;99.80
7117;DHT22;3600;48.568;7.870;2023-04-07T13:31:02;14.80;99.60
7117;DHT22;3600;48.568;7.870;2023-04-07T13:33:33;14.70;99.90
7117;DHT22;3600;48.568;7.870;2023-04-07T13:36:00;14.60;99.80
7117;DHT22;3600;48.568;7.870;2023-04-07T13:38:27;14.50;99.90
7117;DHT22;3600;48.568;7.870;2023-04-07T13:40:54;14.40;99.70
7117;DHT22;3600;48.568;7.870;2023-04-07T13:43:21;14.50;99.90
7117;DHT22;3600;48.568;7.870;2023-04-07T13:45:48;14.60;99.90
7117;DHT22;3600;48.568;7.870;2023-04-07T13:48:15;14.70;99.90
7117;DHT22;3600;48.568;7.870;2023-04-07T13:50:42;14.90;99.90
7117;DHT22;3600;48.568;7.870;2023-04-07T13:53:08;14.90;99.90
7117;DHT22;3600;48.568;7.870;2023-04-07T13:55:35;14.70;99.70
7117;DHT22;3600;48.568;7.870;2023-04-07T13:58:02;14.60;99.90
7117;DHT22;3600;48.568;7.870;2023-04-07T14:00:29;14.70;99.90
7117;DHT22;3600;48.568;7.870;2023-04-07T14:02:56;14.70;99.90
7117;DHT22;3600;48.568;7.870;2023-04-07T14:05:23;14.80;99.90
7117;DHT22;3600;48.568;7.870;2023-04-07T14:07:50;15.00;99.90
7117;DHT22;3600;48.568;7.870;2023-04-07T14:10:17;15.10;99.90
7117;DHT22;3600;48.568;7.870;2023-04-07T14:12:44;15.00;99.90
7117;DHT22;3600;48.568;7.870;2023-04-07T14:15:10;15.00;99.90
7117;DHT22;3600;48.568;7.870;2023-04-07T14:17:37;14.80;99.90
7117;DHT22;3600;48.568;7.870;2023-04-07T14:20:05;14.70;99.90
7117;DHT22;3600;48.568;7.870;2023-04-07T14:22:32;14.70;99.90
7117;DHT22;3600;48.568;7.870;2023-04-07T14:24:58;14.70;99.90
7117;DHT22;3600;48.568;7.870;2023-04-07T14:27:26;14.20;99.90
7117;DHT22;3600;48.568;7.870;2023-04-07T14:29:56;14.00;99.40
7117;DHT22;3600;48.568;7.870;2023-04-07T14:32:26;13.60;98.10
7117;DHT22;3600;48.568;7.870;2023-04-07T14:34:55;13.10;98.00
7117;DHT22;3600;48.568;7.870;2023-04-07T14:37:22;12.90;98.10
7117;DHT22;3600;48.568;7.870;2023-04-07T14:39:51;12.70;98.80
7117;DHT22;3600;48.568;7.870;2023-04-07T14:42:29;12.90;98.30
7117;DHT22;3600;48.568;7.870;2023-04-07T14:44:55;13.00;98.00
7117;DHT22;3600;48.568;7.870;2023-04-07T14:47:22;13.10;97.50
7117;DHT22;3600;48.568;7.870;2023-04-07T14:49:49;13.20;97.80
7117;DHT22;3600;48.568;7.870;2023-04-07T14:52:19;13.20;97.60
7117;DHT22;3600;48.568;7.870;2023-04-07T14:54:47;13.30;97.50
7117;DHT22;3600;48.568;7.870;2023-04-07T14:57:14;13.20;97.80
7117;DHT22;3600;48.568;7.870;2023-04-07T14:59:42;13.30;97.70
7117;DHT22;3600;48.568;7.870;2023-04-07T15:02:09;13.20;97.50
7117;DHT22;3600;48.568;7.870;2023-04-07T15:04:36;13.20;97.80
7117;DHT22;3600;48.568;7.870;2023-04-07T15:07:12;13.10;98.30
7117;DHT22;3600;48.568;7.870;2023-04-07T15:09:38;13.30;97.90
7117;DHT22;3600;48.568;7.870;2023-04-07T15:12:05;13.40;97.80
7117;DHT22;3600;48.568;7.870;2023-04-07T15:14:32;13.40;97.90
7117;DHT22;3600;48.568;7.870;2023-04-07T15:16:59;13.50;98.10
7117;DHT22;3600;48.568;7.870;2023-04-07T15:19:25;13.70;98.10
7117;DHT22;3600;48.568;7.870;2023-04-07T15:21:52;14.00;98.00
7117;DHT22;3600;48.568;7.870;2023-04-07T15:24:19;14.30;97.40
7117;DHT22;3600;48.568;7.870;2023-04-07T15:26:48;14.60;97.10
7117;DHT22;3600;48.568;7.870;2023-04-07T15:29:15;15.00;96.90
7117;DHT22;3600;48.568;7.870;2023-04-07T15:31:42;15.20;95.90
7117;DHT22;3600;48.568;7.870;2023-04-07T15:34:08;15.30;96.20
7117;DHT22;3600;48.568;7.870;2023-04-07T15:36:35;15.20;96.10
7117;DHT22;3600;48.568;7.870;2023-04-07T15:39:03;15.10;96.20
7117;DHT22;3600;48.568;7.870;2023-04-07T15:41:31;15.20;96.80
7117;DHT22;3600;48.568;7.870;2023-04-07T15:44:01;15.30;96.70
7117;DHT22;3600;48.568;7.870;2023-04-07T15:46:28;15.20;97.40
7117;DHT22;3600;48.568;7.870;2023-04-07T15:48:57;15.20;97.00
7117;DHT22;3600;48.568;7.870;2023-04-07T15:51:24;14.90;96.70
7117;DHT22;3600;48.568;7.870;2023-04-07T15:53:53;14.90;97.30
7117;DHT22;3600;48.568;7.870;2023-04-07T15:56:20;14.80;97.70
7117;DHT22;3600;48.568;7.870;2023-04-07T15:58:50;14.80;97.50
7117;DHT22;3600;48.568;7.870;2023-04-07T16:01:16;14.60;98.00
7117;DHT22;3600;48.568;7.870;2023-04-07T16:03:43;14.50;98.90
7117;DHT22;3600;48.568;7.870;2023-04-07T16:06:11;14.40;98.80
7117;DHT22;3600;48.568;7.870;2023-04-07T16:08:37;14.30;99.50
7117;DHT22;3600;48.568;7.870;2023-04-07T16:11:04;14.20;99.30
7117;DHT22;3600;48.568;7.870;2023-04-07T16:13:31;14.10;99.60
7117;DHT22;3600;48.568;7.870;2023-04-07T16:15:58;14.10;99.50
7117;DHT22;3600;48.568;7.870;2023-04-07T16:18:25;14.00;99.80
7117;DHT22;3600;48.568;7.870;2023-04-07T16:20:52;13.90;99.90
7117;DHT22;3600;48.568;7.870;2023-04-07T16:23:19;13.90;99.80
7117;DHT22;3600;48.568;7.870;2023-04-07T16:25:46;13.70;99.90
7117;DHT22;3600;48.568;7.870;2023-04-07T16:28:13;13.60;99.90
7117;DHT22;3600;48.568;7.870;2023-04-07T16:30:40;13.50;99.90
7117;DHT22;3600;48.568;7.870;2023-04-07T16:33:06;13.50;99.90
7117;DHT22;3600;48.568;7.870;2023-04-07T16:35:33;13.50;99.90
7117;DHT22;3600;48.568;7.870;2023-04-07T16:38:00;13.30;99.90